Terminal Aerodrome Forecast
Issued by NWS Wilmington, NC

Home | Current Version | Previous Version | Text Only | Print | Product List | Glossary On
Versions: 1 2 3 4 5 6 7 8 9 10 11 12 13 14 15 16 17 18 19 20 21 22 23
000
FTUS42 KILM 232320
TAFLBT
TAF
KLBT 232320Z 2400/2424 27005KT 6SM -SHRA VCTS SCT035 BKN070CB
     FM240400 26004KT P6SM VCSH SCT035 OVC090
     FM240700 29004KT P6SM BKN045
     FM241100 02006KT P6SM BKN008
     FM241400 06009KT P6SM BKN010
     FM241500 07008KT P6SM VCSH BKN020
     FM241700 10004KT P6SM VCTS BKN040CB
     FM242100 03005KT P6SM BKN080=

USA.gov is the U.S. government's official web portal to all federal, state and local government web resources and services.